sensor_id;sensor_type;location;lat;lon;timestamp;temperature;humidity
72114;SHT31;59989;46.220;19.888;2022-12-07T00:00:40;-0.22;97.71
72114;SHT31;59989;46.220;19.888;2022-12-07T00:03:44;-0.17;97.76
72114;SHT31;59989;46.220;19.888;2022-12-07T00:06:51;-0.38;97.61
72114;SHT31;59989;46.220;19.888;2022-12-07T00:09:54;-0.39;97.57
72114;SHT31;59989;46.220;19.888;2022-12-07T00:12:57;-0.45;97.52
72114;SHT31;59989;46.220;19.888;2022-12-07T00:16:22;-0.49;97.47
72114;SHT31;59989;46.220;19.888;2022-12-07T00:19:26;-0.41;97.57
72114;SHT31;59989;46.220;19.888;2022-12-07T00:22:28;-0.26;97.63
72114;SHT31;59989;46.220;19.888;2022-12-07T00:25:31;-0.34;97.75
72114;SHT31;59989;46.220;19.888;2022-12-07T00:28:33;-0.42;97.76
72114;SHT31;59989;46.220;19.888;2022-12-07T00:31:37;-0.55;97.82
72114;SHT31;59989;46.220;19.888;2022-12-07T00:34:43;-0.68;97.73
72114;SHT31;59989;46.220;19.888;2022-12-07T00:37:45;-0.91;97.59
72114;SHT31;59989;46.220;19.888;2022-12-07T00:40:58;-1.07;97.38
72114;SHT31;59989;46.220;19.888;2022-12-07T00:44:01;-1.17;97.32
72114;SHT31;59989;46.220;19.888;2022-12-07T00:47:03;-1.25;97.34
72114;SHT31;59989;46.220;19.888;2022-12-07T00:50:06;-1.51;97.06
72114;SHT31;59989;46.220;19.888;2022-12-07T00:53:09;-1.59;97.10
72114;SHT31;59989;46.220;19.888;2022-12-07T00:59:18;-1.66;97.27
72114;SHT31;59989;46.220;19.888;2022-12-07T01:02:21;-1.72;97.34
72114;SHT31;59989;46.220;19.888;2022-12-07T01:05:23;-1.68;97.56
72114;SHT31;59989;46.220;19.888;2022-12-07T01:08:27;-1.65;97.46
72114;SHT31;59989;46.220;19.888;2022-12-07T01:11:30;-1.69;97.39
72114;SHT31;59989;46.220;19.888;2022-12-07T01:14:32;-1.62;97.47
72114;SHT31;59989;46.220;19.888;2022-12-07T01:17:35;-1.58;97.53
72114;SHT31;59989;46.220;19.888;2022-12-07T01:20:37;-1.54;97.49
72114;SHT31;59989;46.220;19.888;2022-12-07T01:23:40;-1.55;97.57
72114;SHT31;59989;46.220;19.888;2022-12-07T01:26:42;-1.40;97.51
72114;SHT31;59989;46.220;19.888;2022-12-07T01:29:45;-1.52;97.52
72114;SHT31;59989;46.220;19.888;2022-12-07T01:32:47;-1.62;97.47
72114;SHT31;59989;46.220;19.888;2022-12-07T01:35:50;-1.56;97.58
72114;SHT31;59989;46.220;19.888;2022-12-07T01:38:58;-1.62;97.56
72114;SHT31;59989;46.220;19.888;2022-12-07T01:42:01;-1.66;97.52
72114;SHT31;59989;46.220;19.888;2022-12-07T01:48:26;-1.21;97.58
72114;SHT31;59989;46.220;19.888;2022-12-07T01:51:29;-1.11;97.71
72114;SHT31;59989;46.220;19.888;2022-12-07T01:54:33;-1.10;97.76
72114;SHT31;59989;46.220;19.888;2022-12-07T01:57:40;-1.12;97.76
72114;SHT31;59989;46.220;19.888;2022-12-07T02:00:43;-1.12;97.69
72114;SHT31;59989;46.220;19.888;2022-12-07T02:03:46;-1.14;97.67
72114;SHT31;59989;46.220;19.888;2022-12-07T02:06:50;-1.37;97.52
72114;SHT31;59989;46.220;19.888;2022-12-07T02:09:53;-1.51;97.38
72114;SHT31;59989;46.220;19.888;2022-12-07T02:12:59;-1.40;97.37
72114;SHT31;59989;46.220;19.888;2022-12-07T02:16:38;-1.28;97.53
72114;SHT31;59989;46.220;19.888;2022-12-07T02:33:14;-1.70;97.38
72114;SHT31;59989;46.220;19.888;2022-12-07T02:36:32;-1.73;97.28
72114;SHT31;59989;46.220;19.888;2022-12-07T02:39:46;-1.73;97.33
72114;SHT31;59989;46.220;19.888;2022-12-07T02:42:55;-1.86;97.26
72114;SHT31;59989;46.220;19.888;2022-12-07T02:46:06;-1.97;97.21
72114;SHT31;59989;46.220;19.888;2022-12-07T02:49:10;-2.01;97.27
72114;SHT31;59989;46.220;19.888;2022-12-07T02:52:13;-1.85;97.34
72114;SHT31;59989;46.220;19.888;2022-12-07T02:55:19;-1.85;97.32
72114;SHT31;59989;46.220;19.888;2022-12-07T02:58:32;-1.83;97.42
72114;SHT31;59989;46.220;19.888;2022-12-07T03:12:17;-1.79;97.40
72114;SHT31;59989;46.220;19.888;2022-12-07T03:19:09;-1.54;97.52
72114;SHT31;59989;46.220;19.888;2022-12-07T03:22:13;-1.55;97.56
72114;SHT31;59989;46.220;19.888;2022-12-07T03:25:17;-1.78;97.26
72114;SHT31;59989;46.220;19.888;2022-12-07T03:28:22;-1.91;97.16
72114;SHT31;59989;46.220;19.888;2022-12-07T03:31:31;-1.90;97.29
72114;SHT31;59989;46.220;19.888;2022-12-07T03:34:46;-1.90;97.32
72114;SHT31;59989;46.220;19.888;2022-12-07T03:37:57;-2.04;97.08
72114;SHT31;59989;46.220;19.888;2022-12-07T03:41:12;-2.15;97.05
72114;SHT31;59989;46.220;19.888;2022-12-07T03:44:17;-2.07;97.14
72114;SHT31;59989;46.220;19.888;2022-12-07T03:50:41;-2.01;97.39
72114;SHT31;59989;46.220;19.888;2022-12-07T03:56:53;-2.03;97.37
72114;SHT31;59989;46.220;19.888;2022-12-07T03:59:57;-1.91;97.35
72114;SHT31;59989;46.220;19.888;2022-12-07T04:03:00;-1.96;97.31
72114;SHT31;59989;46.220;19.888;2022-12-07T04:06:02;-1.91;97.36
72114;SHT31;59989;46.220;19.888;2022-12-07T04:09:05;-2.03;97.32
72114;SHT31;59989;46.220;19.888;2022-12-07T04:12:07;-2.10;97.28
72114;SHT31;59989;46.220;19.888;2022-12-07T04:15:10;-2.03;97.33
72114;SHT31;59989;46.220;19.888;2022-12-07T04:18:13;-2.03;97.28
72114;SHT31;59989;46.220;19.888;2022-12-07T04:21:15;-1.97;97.33
72114;SHT31;59989;46.220;19.888;2022-12-07T04:24:18;-1.93;97.43
72114;SHT31;59989;46.220;19.888;2022-12-07T04:27:20;-1.99;97.40
72114;SHT31;59989;46.220;19.888;2022-12-07T04:30:23;-2.03;97.38
72114;SHT31;59989;46.220;19.888;2022-12-07T04:33:26;-2.10;97.34
72114;SHT31;59989;46.220;19.888;2022-12-07T04:36:28;-2.15;97.25
72114;SHT31;59989;46.220;19.888;2022-12-07T04:39:32;-2.09;97.32
72114;SHT31;59989;46.220;19.888;2022-12-07T04:42:35;-2.19;97.23
72114;SHT31;59989;46.220;19.888;2022-12-07T04:45:38;-2.31;97.21
72114;SHT31;59989;46.220;19.888;2022-12-07T04:48:40;-2.40;97.13
72114;SHT31;59989;46.220;19.888;2022-12-07T04:51:43;-2.36;97.19
72114;SHT31;59989;46.220;19.888;2022-12-07T04:54:46;-2.33;97.13
72114;SHT31;59989;46.220;19.888;2022-12-07T04:57:48;-2.33;97.10
72114;SHT31;59989;46.220;19.888;2022-12-07T05:00:54;-2.28;97.12
72114;SHT31;59989;46.220;19.888;2022-12-07T05:03:57;-2.37;97.03
72114;SHT31;59989;46.220;19.888;2022-12-07T05:07:00;-2.45;97.12
72114;SHT31;59989;46.220;19.888;2022-12-07T05:10:03;-2.45;97.09
72114;SHT31;59989;46.220;19.888;2022-12-07T05:13:06;-2.51;97.07
72114;SHT31;59989;46.220;19.888;2022-12-07T05:16:08;-2.65;96.88
72114;SHT31;59989;46.220;19.888;2022-12-07T05:19:10;-2.73;96.90
72114;SHT31;59989;46.220;19.888;2022-12-07T05:22:13;-2.76;96.89
72114;SHT31;59989;46.220;19.888;2022-12-07T05:25:16;-2.80;97.03
72114;SHT31;59989;46.220;19.888;2022-12-07T05:28:18;-2.83;96.99
72114;SHT31;59989;46.220;19.888;2022-12-07T05:31:22;-2.83;97.02
72114;SHT31;59989;46.220;19.888;2022-12-07T05:34:25;-2.78;97.17
72114;SHT31;59989;46.220;19.888;2022-12-07T05:37:27;-2.85;97.06
72114;SHT31;59989;46.220;19.888;2022-12-07T05:40:30;-2.88;97.28
72114;SHT31;59989;46.220;19.888;2022-12-07T05:43:33;-2.86;97.21
72114;SHT31;59989;46.220;19.888;2022-12-07T05:46:35;-2.76;97.34
72114;SHT31;59989;46.220;19.888;2022-12-07T05:49:38;-2.79;97.30
72114;SHT31;59989;46.220;19.888;2022-12-07T05:52:40;-2.82;97.30
72114;SHT31;59989;46.220;19.888;2022-12-07T05:55:43;-2.82;97.27
72114;SHT31;59989;46.220;19.888;2022-12-07T05:58:46;-2.75;97.46
72114;SHT31;59989;46.220;19.888;2022-12-07T06:02:13;-2.57;97.48
72114;SHT31;59989;46.220;19.888;2022-12-07T06:05:16;-2.47;97.50
72114;SHT31;59989;46.220;19.888;2022-12-07T06:08:18;-2.31;97.50
72114;SHT31;59989;46.220;19.888;2022-12-07T06:11:21;-2.28;97.58
72114;SHT31;59989;46.220;19.888;2022-12-07T06:14:43;-2.41;97.46
72114;SHT31;59989;46.220;19.888;2022-12-07T06:17:47;-2.57;97.26
72114;SHT31;59989;46.220;19.888;2022-12-07T06:20:49;-2.66;97.11
72114;SHT31;59989;46.220;19.888;2022-12-07T06:23:52;-2.70;97.26
72114;SHT31;59989;46.220;19.888;2022-12-07T06:26:55;-2.70;97.21
72114;SHT31;59989;46.220;19.888;2022-12-07T06:29:57;-2.76;96.98
72114;SHT31;59989;46.220;19.888;2022-12-07T06:33:00;-2.79;97.01
72114;SHT31;59989;46.220;19.888;2022-12-07T06:36:03;-2.61;97.25
72114;SHT31;59989;46.220;19.888;2022-12-07T06:39:06;-2.45;97.35
72114;SHT31;59989;46.220;19.888;2022-12-07T06:42:11;-2.20;97.36
72114;SHT31;59989;46.220;19.888;2022-12-07T06:45:14;-2.24;97.35
72114;SHT31;59989;46.220;19.888;2022-12-07T06:48:16;-2.34;97.20
72114;SHT31;59989;46.220;19.888;2022-12-07T06:51:19;-2.38;97.00
72114;SHT31;59989;46.220;19.888;2022-12-07T06:54:21;-2.34;96.93
72114;SHT31;59989;46.220;19.888;2022-12-07T06:57:24;-2.31;97.04
72114;SHT31;59989;46.220;19.888;2022-12-07T07:00:27;-2.09;97.28
72114;SHT31;59989;46.220;19.888;2022-12-07T07:03:30;-1.85;97.48
72114;SHT31;59989;46.220;19.888;2022-12-07T07:06:33;-1.69;97.45
72114;SHT31;59989;46.220;19.888;2022-12-07T07:09:35;-1.42;97.44
72114;SHT31;59989;46.220;19.888;2022-12-07T07:12:38;-1.24;97.46
72114;SHT31;59989;46.220;19.888;2022-12-07T07:15:40;-1.14;97.47
72114;SHT31;59989;46.220;19.888;2022-12-07T07:18:43;-1.21;97.31
72114;SHT31;59989;46.220;19.888;2022-12-07T07:21:45;-1.30;96.82
72114;SHT31;59989;46.220;19.888;2022-12-07T07:24:48;-1.14;97.00
72114;SHT31;59989;46.220;19.888;2022-12-07T07:27:50;-0.97;97.12
72114;SHT31;59989;46.220;19.888;2022-12-07T07:30:52;-0.84;97.24
72114;SHT31;59989;46.220;19.888;2022-12-07T07:33:55;-0.89;97.14
72114;SHT31;59989;46.220;19.888;2022-12-07T07:36:57;-1.03;96.84
72114;SHT31;59989;46.220;19.888;2022-12-07T07:40:00;-1.03;96.70
72114;SHT31;59989;46.220;19.888;2022-12-07T07:43:03;-0.86;96.89
72114;SHT31;59989;46.220;19.888;2022-12-07T07:46:06;-0.36;97.03
72114;SHT31;59989;46.220;19.888;2022-12-07T07:49:10;-0.01;97.18
72114;SHT31;59989;46.220;19.888;2022-12-07T07:52:13;0.21;97.22
72114;SHT31;59989;46.220;19.888;2022-12-07T07:55:18;0.23;97.14
72114;SHT31;59989;46.220;19.888;2022-12-07T07:58:21;0.36;97.14
72114;SHT31;59989;46.220;19.888;2022-12-07T08:01:25;0.51;96.98
72114;SHT31;59989;46.220;19.888;2022-12-07T08:04:29;0.72;96.93
72114;SHT31;59989;46.220;19.888;2022-12-07T08:07:31;0.89;96.94
72114;SHT31;59989;46.220;19.888;2022-12-07T08:10:34;1.12;96.96
72114;SHT31;59989;46.220;19.888;2022-12-07T08:13:37;1.36;96.86
72114;SHT31;59989;46.220;19.888;2022-12-07T08:16:40;1.54;96.91
72114;SHT31;59989;46.220;19.888;2022-12-07T08:19:42;1.77;96.57
72114;SHT31;59989;46.220;19.888;2022-12-07T08:22:45;1.98;96.54
72114;SHT31;59989;46.220;19.888;2022-12-07T08:25:48;2.19;96.35
72114;SHT31;59989;46.220;19.888;2022-12-07T08:28:52;2.37;96.27
72114;SHT31;59989;46.220;19.888;2022-12-07T08:32:02;2.49;96.08
72114;SHT31;59989;46.220;19.888;2022-12-07T08:35:11;2.57;96.07
72114;SHT31;59989;46.220;19.888;2022-12-07T08:38:14;2.71;95.81
72114;SHT31;59989;46.220;19.888;2022-12-07T08:41:17;2.87;95.75
72114;SHT31;59989;46.220;19.888;2022-12-07T08:44:19;3.13;95.74
72114;SHT31;59989;46.220;19.888;2022-12-07T08:47:23;3.19;95.46
72114;SHT31;59989;46.220;19.888;2022-12-07T08:50:26;3.12;95.40
72114;SHT31;59989;46.220;19.888;2022-12-07T08:53:29;3.15;95.11
72114;SHT31;59989;46.220;19.888;2022-12-07T08:56:32;3.28;95.30
72114;SHT31;59989;46.220;19.888;2022-12-07T08:59:36;3.47;94.98
72114;SHT31;59989;46.220;19.888;2022-12-07T09:02:39;3.60;94.87
72114;SHT31;59989;46.220;19.888;2022-12-07T09:05:42;3.76;94.59
72114;SHT31;59989;46.220;19.888;2022-12-07T09:08:47;3.90;94.12
72114;SHT31;59989;46.220;19.888;2022-12-07T09:11:52;3.83;93.83
72114;SHT31;59989;46.220;19.888;2022-12-07T09:14:55;3.90;93.97
72114;SHT31;59989;46.220;19.888;2022-12-07T09:17:57;4.32;93.42
72114;SHT31;59989;46.220;19.888;2022-12-07T09:21:00;4.44;92.72
72114;SHT31;59989;46.220;19.888;2022-12-07T09:24:02;4.59;92.42
72114;SHT31;59989;46.220;19.888;2022-12-07T09:27:05;4.79;92.12
72114;SHT31;59989;46.220;19.888;2022-12-07T09:30:08;5.34;91.52
72114;SHT31;59989;46.220;19.888;2022-12-07T09:33:11;5.30;90.76
72114;SHT31;59989;46.220;19.888;2022-12-07T09:36:13;5.35;90.85
72114;SHT31;59989;46.220;19.888;2022-12-07T09:39:32;5.70;90.42
72114;SHT31;59989;46.220;19.888;2022-12-07T09:42:37;5.90;88.87
72114;SHT31;59989;46.220;19.888;2022-12-07T09:45:43;6.06;88.59
72114;SHT31;59989;46.220;19.888;2022-12-07T09:48:50;5.90;88.51
72114;SHT31;59989;46.220;19.888;2022-12-07T09:52:19;5.69;88.81
72114;SHT31;59989;46.220;19.888;2022-12-07T09:55:26;5.69;88.48
72114;SHT31;59989;46.220;19.888;2022-12-07T09:58:31;5.92;88.27
72114;SHT31;59989;46.220;19.888;2022-12-07T10:01:38;5.89;88.21
72114;SHT31;59989;46.220;19.888;2022-12-07T10:04:42;5.87;88.30
72114;SHT31;59989;46.220;19.888;2022-12-07T10:07:46;5.66;88.49
72114;SHT31;59989;46.220;19.888;2022-12-07T10:10:52;5.58;88.58
72114;SHT31;59989;46.220;19.888;2022-12-07T10:14:11;5.48;88.32
72114;SHT31;59989;46.220;19.888;2022-12-07T10:17:33;5.41;87.87
72114;SHT31;59989;46.220;19.888;2022-12-07T10:20:36;5.48;87.55
72114;SHT31;59989;46.220;19.888;2022-12-07T10:27:19;5.80;86.00
72114;SHT31;59989;46.220;19.888;2022-12-07T10:30:23;5.72;86.85
72114;SHT31;59989;46.220;19.888;2022-12-07T10:33:48;5.83;86.65
72114;SHT31;59989;46.220;19.888;2022-12-07T10:36:53;6.01;86.02
72114;SHT31;59989;46.220;19.888;2022-12-07T10:39:56;6.38;85.68
72114;SHT31;59989;46.220;19.888;2022-12-07T10:43:14;6.14;84.01
72114;SHT31;59989;46.220;19.888;2022-12-07T10:46:43;5.97;84.64
72114;SHT31;59989;46.220;19.888;2022-12-07T11:00:14;7.40;78.42
72114;SHT31;59989;46.220;19.888;2022-12-07T11:10:28;7.46;77.90
72114;SHT31;59989;46.220;19.888;2022-12-07T11:18:18;7.92;76.27
72114;SHT31;59989;46.220;19.888;2022-12-07T11:21:09;7.98;75.32
72114;SHT31;59989;46.220;19.888;2022-12-07T11:24:22;7.77;74.84
72114;SHT31;59989;46.220;19.888;2022-12-07T11:30:50;7.52;75.97
72114;SHT31;59989;46.220;19.888;2022-12-07T11:34:15;7.57;75.63
72114;SHT31;59989;46.220;19.888;2022-12-07T11:37:28;7.68;75.79
72114;SHT31;59989;46.220;19.888;2022-12-07T11:40:44;7.88;74.92
72114;SHT31;59989;46.220;19.888;2022-12-07T11:47:25;8.12;75.69
72114;SHT31;59989;46.220;19.888;2022-12-07T11:50:42;8.50;73.62
72114;SHT31;59989;46.220;19.888;2022-12-07T11:53:59;8.91;72.35
72114;SHT31;59989;46.220;19.888;2022-12-07T11:57:07;9.32;70.25
72114;SHT31;59989;46.220;19.888;2022-12-07T12:00:20;9.02;71.22
72114;SHT31;59989;46.220;19.888;2022-12-07T12:03:30;9.34;68.36
72114;SHT31;59989;46.220;19.888;2022-12-07T12:06:34;10.52;66.13
72114;SHT31;59989;46.220;19.888;2022-12-07T12:09:48;11.66;63.00
72114;SHT31;59989;46.220;19.888;2022-12-07T12:13:05;10.93;61.39
72114;SHT31;59989;46.220;19.888;2022-12-07T12:19:57;11.17;61.41
72114;SHT31;59989;46.220;19.888;2022-12-07T12:23:13;12.44;57.90
72114;SHT31;59989;46.220;19.888;2022-12-07T12:26:20;12.75;55.41
72114;SHT31;59989;46.220;19.888;2022-12-07T12:29:30;12.71;55.97
72114;SHT31;59989;46.220;19.888;2022-12-07T12:32:42;13.33;55.41
72114;SHT31;59989;46.220;19.888;2022-12-07T12:35:46;12.41;56.01
72114;SHT31;59989;46.220;19.888;2022-12-07T12:39:13;10.87;59.69
72114;SHT31;59989;46.220;19.888;2022-12-07T12:42:18;11.11;57.31
72114;SHT31;59989;46.220;19.888;2022-12-07T12:45:28;11.17;57.73
72114;SHT31;59989;46.220;19.888;2022-12-07T12:48:37;11.80;58.33
72114;SHT31;59989;46.220;19.888;2022-12-07T12:51:43;11.11;60.01
72114;SHT31;59989;46.220;19.888;2022-12-07T12:55:00;10.84;60.27
72114;SHT31;59989;46.220;19.888;2022-12-07T12:58:29;11.32;60.54
72114;SHT31;59989;46.220;19.888;2022-12-07T13:01:42;11.34;58.90
72114;SHT31;59989;46.220;19.888;2022-12-07T13:04:49;12.20;57.91
72114;SHT31;59989;46.220;19.888;2022-12-07T13:08:10;10.94;59.67
72114;SHT31;59989;46.220;19.888;2022-12-07T13:14:52;9.15;66.39
72114;SHT31;59989;46.220;19.888;2022-12-07T13:17:57;8.58;68.59
72114;SHT31;59989;46.220;19.888;2022-12-07T13:24:12;8.91;68.35
72114;SHT31;59989;46.220;19.888;2022-12-07T13:27:14;8.57;69.27
72114;SHT31;59989;46.220;19.888;2022-12-07T13:30:20;8.63;70.74
72114;SHT31;59989;46.220;19.888;2022-12-07T13:33:27;8.79;70.50
72114;SHT31;59989;46.220;19.888;2022-12-07T13:36:34;8.48;71.22
72114;SHT31;59989;46.220;19.888;2022-12-07T13:39:50;8.13;71.08
72114;SHT31;59989;46.220;19.888;2022-12-07T13:43:04;7.64;72.54
72114;SHT31;59989;46.220;19.888;2022-12-07T13:46:08;7.68;72.85
72114;SHT31;59989;46.220;19.888;2022-12-07T13:49:27;7.40;75.52
72114;SHT31;59989;46.220;19.888;2022-12-07T13:52:30;7.30;75.70
72114;SHT31;59989;46.220;19.888;2022-12-07T13:55:33;7.17;77.49
72114;SHT31;59989;46.220;19.888;2022-12-07T13:58:38;7.04;77.17
72114;SHT31;59989;46.220;19.888;2022-12-07T14:01:41;6.90;77.51
72114;SHT31;59989;46.220;19.888;2022-12-07T14:04:44;6.82;77.77
72114;SHT31;59989;46.220;19.888;2022-12-07T14:10:56;6.71;78.19
72114;SHT31;59989;46.220;19.888;2022-12-07T14:14:01;6.75;79.64
72114;SHT31;59989;46.220;19.888;2022-12-07T14:17:17;6.64;79.09
72114;SHT31;59989;46.220;19.888;2022-12-07T14:20:39;6.30;81.36
72114;SHT31;59989;46.220;19.888;2022-12-07T14:23:42;6.25;81.27
72114;SHT31;59989;46.220;19.888;2022-12-07T14:26:46;6.17;81.21
72114;SHT31;59989;46.220;19.888;2022-12-07T14:29:49;6.04;81.99
72114;SHT31;59989;46.220;19.888;2022-12-07T14:32:55;5.73;83.35
72114;SHT31;59989;46.220;19.888;2022-12-07T14:35:59;5.59;83.75
72114;SHT31;59989;46.220;19.888;2022-12-07T14:39:01;5.35;84.64
72114;SHT31;59989;46.220;19.888;2022-12-07T14:42:04;5.21;84.86
72114;SHT31;59989;46.220;19.888;2022-12-07T14:45:13;5.14;84.97
72114;SHT31;59989;46.220;19.888;2022-12-07T14:48:17;5.10;84.74
72114;SHT31;59989;46.220;19.888;2022-12-07T14:51:40;4.95;85.95
72114;SHT31;59989;46.220;19.888;2022-12-07T14:55:04;4.81;86.52
72114;SHT31;59989;46.220;19.888;2022-12-07T14:58:14;4.69;87.19
72114;SHT31;59989;46.220;19.888;2022-12-07T15:01:17;4.63;87.37
72114;SHT31;59989;46.220;19.888;2022-12-07T15:04:20;4.60;87.36
72114;SHT31;59989;46.220;19.888;2022-12-07T15:07:22;4.57;87.48
72114;SHT31;59989;46.220;19.888;2022-12-07T15:10:28;4.50;87.61
72114;SHT31;59989;46.220;19.888;2022-12-07T15:13:34;4.44;87.98
72114;SHT31;59989;46.220;19.888;2022-12-07T15:16:55;4.35;88.50
72114;SHT31;59989;46.220;19.888;2022-12-07T15:20:18;4.31;88.54
72114;SHT31;59989;46.220;19.888;2022-12-07T15:23:20;4.32;88.49
72114;SHT31;59989;46.220;19.888;2022-12-07T15:26:23;4.35;88.63
72114;SHT31;59989;46.220;19.888;2022-12-07T15:29:25;4.36;88.86
72114;SHT31;59989;46.220;19.888;2022-12-07T15:32:28;4.39;88.90
72114;SHT31;59989;46.220;19.888;2022-12-07T15:35:30;4.38;88.90
72114;SHT31;59989;46.220;19.888;2022-12-07T15:38:35;4.34;88.96
72114;SHT31;59989;46.220;19.888;2022-12-07T15:41:57;4.32;89.56
72114;SHT31;59989;46.220;19.888;2022-12-07T15:45:00;4.31;89.40
72114;SHT31;59989;46.220;19.888;2022-12-07T15:48:06;4.31;89.45
72114;SHT31;59989;46.220;19.888;2022-12-07T15:51:29;4.34;89.45
72114;SHT31;59989;46.220;19.888;2022-12-07T15:54:32;4.31;89.54
72114;SHT31;59989;46.220;19.888;2022-12-07T15:57:36;4.29;89.62
72114;SHT31;59989;46.220;19.888;2022-12-07T16:00:41;4.24;89.79
72114;SHT31;59989;46.220;19.888;2022-12-07T16:03:45;4.21;89.83
72114;SHT31;59989;46.220;19.888;2022-12-07T16:06:47;4.18;90.10
72114;SHT31;59989;46.220;19.888;2022-12-07T16:09:50;4.15;90.06
72114;SHT31;59989;46.220;19.888;2022-12-07T16:12:52;4.14;90.02
72114;SHT31;59989;46.220;19.888;2022-12-07T16:15:56;4.05;90.48
72114;SHT31;59989;46.220;19.888;2022-12-07T16:18:59;4.02;90.91
72114;SHT31;59989;46.220;19.888;2022-12-07T16:22:02;3.98;91.15
72114;SHT31;59989;46.220;19.888;2022-12-07T16:25:05;3.97;91.37
72114;SHT31;59989;46.220;19.888;2022-12-07T16:28:08;3.98;91.30
72114;SHT31;59989;46.220;19.888;2022-12-07T16:31:14;3.97;91.42
72114;SHT31;59989;46.220;19.888;2022-12-07T16:34:18;3.95;91.18
72114;SHT31;59989;46.220;19.888;2022-12-07T16:37:20;3.95;91.20
72114;SHT31;59989;46.220;19.888;2022-12-07T16:40:23;3.94;91.26
72114;SHT31;59989;46.220;19.888;2022-12-07T16:43:25;3.93;91.32
72114;SHT31;59989;46.220;19.888;2022-12-07T16:46:28;3.90;91.44
72114;SHT31;59989;46.220;19.888;2022-12-07T16:49:30;3.84;91.63
72114;SHT31;59989;46.220;19.888;2022-12-07T16:52:33;3.80;91.59
72114;SHT31;59989;46.220;19.888;2022-12-07T16:55:40;3.77;91.70
72114;SHT31;59989;46.220;19.888;2022-12-07T16:58:44;3.76;91.79
72114;SHT31;59989;46.220;19.888;2022-12-07T17:01:48;3.80;91.62
72114;SHT31;59989;46.220;19.888;2022-12-07T17:04:51;3.74;91.72
72114;SHT31;59989;46.220;19.888;2022-12-07T17:07:53;3.77;91.71
72114;SHT31;59989;46.220;19.888;2022-12-07T17:10:56;3.74;91.67
72114;SHT31;59989;46.220;19.888;2022-12-07T17:13:58;3.73;91.95
72114;SHT31;59989;46.220;19.888;2022-12-07T17:17:19;3.73;92.01
72114;SHT31;59989;46.220;19.888;2022-12-07T17:20:24;3.77;92.07
72114;SHT31;59989;46.220;19.888;2022-12-07T17:23:27;3.76;92.14
72114;SHT31;59989;46.220;19.888;2022-12-07T17:26:30;3.73;92.28
72114;SHT31;59989;46.220;19.888;2022-12-07T17:29:37;3.64;92.52
72114;SHT31;59989;46.220;19.888;2022-12-07T17:32:39;3.64;92.73
72114;SHT31;59989;46.220;19.888;2022-12-07T17:35:42;3.60;92.81
72114;SHT31;59989;46.220;19.888;2022-12-07T17:38:45;3.60;92.82
72114;SHT31;59989;46.220;19.888;2022-12-07T17:41:49;3.57;92.81
72114;SHT31;59989;46.220;19.888;2022-12-07T17:45:10;3.49;92.85
72114;SHT31;59989;46.220;19.888;2022-12-07T17:48:13;3.49;92.82
72114;SHT31;59989;46.220;19.888;2022-12-07T17:51:16;3.47;92.96
72114;SHT31;59989;46.220;19.888;2022-12-07T17:54:37;3.50;92.84
72114;SHT31;59989;46.220;19.888;2022-12-07T17:57:39;3.50;92.80
72114;SHT31;59989;46.220;19.888;2022-12-07T18:00:42;3.52;92.66
72114;SHT31;59989;46.220;19.888;2022-12-07T18:03:44;3.55;92.74
72114;SHT31;59989;46.220;19.888;2022-12-07T18:06:47;3.55;92.74
72114;SHT31;59989;46.220;19.888;2022-12-07T18:09:53;3.52;92.71
72114;SHT31;59989;46.220;19.888;2022-12-07T18:12:56;3.55;92.76
72114;SHT31;59989;46.220;19.888;2022-12-07T18:16:21;3.56;92.63
72114;SHT31;59989;46.220;19.888;2022-12-07T18:19:24;3.53;92.76
72114;SHT31;59989;46.220;19.888;2022-12-07T18:22:27;3.60;92.79
72114;SHT31;59989;46.220;19.888;2022-12-07T18:25:29;3.60;92.93
72114;SHT31;59989;46.220;19.888;2022-12-07T18:28:33;3.56;93.00
72114;SHT31;59989;46.220;19.888;2022-12-07T18:31:36;3.56;93.01
72114;SHT31;59989;46.220;19.888;2022-12-07T18:34:39;3.55;93.03
72114;SHT31;59989;46.220;19.888;2022-12-07T18:37:42;3.52;93.03
72114;SHT31;59989;46.220;19.888;2022-12-07T18:40:45;3.52;93.08
72114;SHT31;59989;46.220;19.888;2022-12-07T18:43:47;3.47;93.16
72114;SHT31;59989;46.220;19.888;2022-12-07T18:46:50;3.44;93.23
72114;SHT31;59989;46.220;19.888;2022-12-07T18:49:53;3.47;93.24
72114;SHT31;59989;46.220;19.888;2022-12-07T18:52:57;3.49;93.27
72114;SHT31;59989;46.220;19.888;2022-12-07T18:59:12;3.40;93.43
72114;SHT31;59989;46.220;19.888;2022-12-07T19:02:33;3.42;93.45
72114;SHT31;59989;46.220;19.888;2022-12-07T19:05:37;3.42;93.45
72114;SHT31;59989;46.220;19.888;2022-12-07T19:08:39;3.46;93.44
72114;SHT31;59989;46.220;19.888;2022-12-07T19:11:42;3.40;93.55
72114;SHT31;59989;46.220;19.888;2022-12-07T19:14:52;3.39;93.58
72114;SHT31;59989;46.220;19.888;2022-12-07T19:17:56;3.38;93.65
72114;SHT31;59989;46.220;19.888;2022-12-07T19:21:02;3.33;93.75
72114;SHT31;59989;46.220;19.888;2022-12-07T19:24:05;3.33;93.73
72114;SHT31;59989;46.220;19.888;2022-12-07T19:27:09;3.30;93.71
72114;SHT31;59989;46.220;19.888;2022-12-07T19:30:12;3.32;93.73
72114;SHT31;59989;46.220;19.888;2022-12-07T19:33:15;3.32;93.60
72114;SHT31;59989;46.220;19.888;2022-12-07T19:36:17;3.28;93.83
72114;SHT31;59989;46.220;19.888;2022-12-07T19:39:20;3.25;93.89
72114;SHT31;59989;46.220;19.888;2022-12-07T19:42:23;3.26;93.85
72114;SHT31;59989;46.220;19.888;2022-12-07T19:45:25;3.28;93.93
72114;SHT31;59989;46.220;19.888;2022-12-07T19:48:32;3.26;93.97
72114;SHT31;59989;46.220;19.888;2022-12-07T19:51:35;3.28;94.10
72114;SHT31;59989;46.220;19.888;2022-12-07T19:54:38;3.30;94.08
72114;SHT31;59989;46.220;19.888;2022-12-07T19:57:40;3.25;94.11
72114;SHT31;59989;46.220;19.888;2022-12-07T20:00:43;3.22;94.11
72114;SHT31;59989;46.220;19.888;2022-12-07T20:03:46;3.20;94.15
72114;SHT31;59989;46.220;19.888;2022-12-07T20:06:52;3.16;94.35
72114;SHT31;59989;46.220;19.888;2022-12-07T20:09:55;3.15;94.37
72114;SHT31;59989;46.220;19.888;2022-12-07T20:12:58;3.13;94.30
72114;SHT31;59989;46.220;19.888;2022-12-07T20:16:21;3.09;94.28
72114;SHT31;59989;46.220;19.888;2022-12-07T20:19:24;3.07;94.31
72114;SHT31;59989;46.220;19.888;2022-12-07T20:22:27;3.07;94.32
72114;SHT31;59989;46.220;19.888;2022-12-07T20:25:29;3.07;94.38
72114;SHT31;59989;46.220;19.888;2022-12-07T20:28:33;3.04;94.30
72114;SHT31;59989;46.220;19.888;2022-12-07T20:31:39;3.01;94.37
72114;SHT31;59989;46.220;19.888;2022-12-07T20:34:42;2.91;94.32
72114;SHT31;59989;46.220;19.888;2022-12-07T20:37:46;2.88;94.36
72114;SHT31;59989;46.220;19.888;2022-12-07T20:40:49;2.83;94.40
72114;SHT31;59989;46.220;19.888;2022-12-07T20:43:52;2.78;94.46
72114;SHT31;59989;46.220;19.888;2022-12-07T20:46:54;2.68;94.51
72114;SHT31;59989;46.220;19.888;2022-12-07T20:49:57;2.67;94.47
72114;SHT31;59989;46.220;19.888;2022-12-07T20:53:00;2.67;94.52
72114;SHT31;59989;46.220;19.888;2022-12-07T20:56:03;2.70;94.71